Terminal Aerodrome Forecast
Issued by NWS Wilmington, OH

Home | Current Version | Previous Version | Text Only | Print | Product List | Glossary On
Versions: 1 2 3 4 5 6 7 8 9 10 11 12 13 14 15 16 17 18 19 20 21 22 23 24 25 26 27
000
FTUS41 KILN 050536
TAFCVG
TAF
KCVG 050536Z 0506/0612 VRB03KT P6SM BKN150
     FM050900 VRB03KT 5SM BR SCT150
     FM051300 VRB03KT P6SM SCT040
     FM051900 09005KT P6SM VCTS BKN050CB
     FM060000 12004KT P6SM SCT060 BKN120
     FM060900 13004KT 5SM BR SCT120=

USA.gov is the U.S. government's official web portal to all federal, state and local government web resources and services.